Time;durP1;ratioP1;P1;durP2;ratioP2;P2;SDS_P1;SDS_P2;PMS_P1;PMS_P2;Temp;Humidity;BMP_temperature;BMP_pressure;BME280_temperature;BME280_humidity;BME280_pressure;Samples;Min_cycle;Max_cycle;Signal;HPM_P1;HPM_P2
2022/09/28 00:01:58;;;;;;;5.50;2.05;;;;;;;11.09;79.34;98191.25;5052492;28;20145;-85
2022/09/28 00:04:25;;;;;;;8.95;2.17;;;;;;;11.08;79.41;98185.13;5067259;28;20126;-86
2022/09/28 00:06:52;;;;;;;7.72;2.40;;;;;;;11.10;79.55;98174.34;5053887;28;20096;-85
2022/09/28 00:09:19;;;;;;;8.13;1.90;;;;;;;11.10;79.63;98168.22;5063276;28;20040;-85
2022/09/28 00:11:46;;;;;;;4.95;1.80;;;;;;;11.07;79.45;98158.78;5047403;28;20498;-85
2022/09/28 00:14:13;;;;;;;4.25;1.80;;;;;;;11.07;79.42;98162.25;5071516;28;21050;-86
2022/09/28 00:16:42;;;;;;;5.88;2.30;;;;;;;11.05;79.73;98153.63;5101982;28;20372;-85
2022/09/28 00:19:10;;;;;;;6.20;1.90;;;;;;;11.02;79.93;98151.34;5063151;28;20515;-86
2022/09/28 00:21:38;;;;;;;2.95;1.70;;;;;;;11.01;79.80;98144.34;5082767;28;20394;-86
2022/09/28 00:24:16;;;;;;;8.85;2.00;;;;;;;11.05;80.02;98140.34;5053914;28;20048;-85
2022/09/28 00:26:51;;;;;;;7.28;1.70;;;;;;;10.95;80.47;98131.81;5041990;28;20059;-85
2022/09/28 00:29:35;;;;;;;5.25;1.77;;;;;;;10.90;81.13;98122.75;5072276;28;20048;-85
2022/09/28 00:32:08;;;;;;;4.93;1.85;;;;;;;10.96;80.96;98124.66;5073639;28;20039;-85
2022/09/28 00:34:35;;;;;;;;;;;;;;;10.70;82.44;98128.53;5055047;28;20052;-85
2022/09/28 00:37:04;;;;;;;5.80;2.10;;;;;;;10.96;80.61;98129.97;5068581;28;19920;-84
2022/09/28 00:39:31;;;;;;;5.05;2.00;;;;;;;11.00;80.58;98126.78;5071834;28;20088;-84
2022/09/28 00:41:58;;;;;;;4.22;1.95;;;;;;;11.02;80.49;98121.31;5070942;28;20109;-84
2022/09/28 00:44:25;;;;;;;3.88;2.05;;;;;;;11.01;80.22;98117.78;5071852;28;20040;-83
2022/09/28 00:47:09;;;;;;;3.30;1.88;;;;;;;10.89;80.73;98105.97;5102116;28;20043;-83
2022/09/28 00:49:39;;;;;;;4.55;1.90;;;;;;;10.97;80.90;98097.94;5084293;28;20055;-83
2022/09/28 00:52:07;;;;;;;6.40;1.77;;;;;;;10.96;81.04;98082.16;5058589;28;20510;-83
2022/09/28 00:54:33;;;;;;;6.53;1.80;;;;;;;10.99;80.74;98081.81;5056114;28;20097;-83
2022/09/28 00:57:00;;;;;;;5.35;1.95;;;;;;;11.01;80.84;98082.44;5072503;28;20041;-83
2022/09/28 00:59:28;;;;;;;3.90;1.95;;;;;;;10.94;81.45;98085.03;5051697;28;20047;-83
2022/09/28 01:01:54;;;;;;;4.63;1.73;;;;;;;10.89;81.84;98079.44;5037987;28;20526;-83
2022/09/28 01:04:21;;;;;;;8.57;1.90;;;;;;;10.89;81.40;98079.44;5040536;28;20042;-83
2022/09/28 01:06:53;;;;;;;3.08;1.50;;;;;;;10.85;82.15;98075.47;5072163;28;20585;-83
2022/09/28 01:09:20;;;;;;;4.28;1.60;;;;;;;10.89;81.81;98073.28;5081610;28;20054;-83
2022/09/28 01:11:47;;;;;;;5.88;1.80;;;;;;;10.89;81.95;98066.16;5034748;28;20039;-84
2022/09/28 01:14:15;;;;;;;4.47;1.40;;;;;;;10.88;82.58;98063.66;5066250;28;20123;-83
2022/09/28 01:16:57;;;;;;;2.45;1.60;;;;;;;10.76;82.79;98061.47;5065455;28;20040;-84
2022/09/28 01:20:10;;;;;;;6.10;1.60;;;;;;;10.75;82.88;98057.16;5091548;28;20567;-83
2022/09/28 01:22:55;;;;;;;8.45;1.90;;;;;;;10.73;83.59;98053.03;5055282;28;20059;-84
2022/09/28 01:25:38;;;;;;;4.88;1.83;;;;;;;10.88;83.18;98050.38;5078209;28;20167;-83
2022/09/28 01:28:14;;;;;;;4.53;2.05;;;;;;;10.85;83.54;98046.28;5057544;28;20494;-83
2022/09/28 01:31:06;;;;;;;9.05;1.83;;;;;;;10.80;84.18;98036.19;5086359;28;20047;-83
2022/09/28 01:33:37;;;;;;;9.35;1.65;;;;;;;10.87;83.70;98030.97;5070079;28;20432;-83
2022/09/28 01:36:25;;;;;;;12.52;1.85;;;;;;;10.90;83.73;98027.97;5054946;28;20113;-83
2022/09/28 01:39:03;;;;;;;4.50;1.80;;;;;;;10.87;83.48;98025.69;5078139;28;20439;-83
2022/09/28 01:41:31;;;;;;;2.70;2.20;;;;;;;10.94;83.25;98015.97;5083272;28;20504;-83
2022/09/28 01:44:01;;;;;;;7.13;2.22;;;;;;;10.96;83.39;98015.78;5073613;28;20036;-83
2022/09/28 01:46:43;;;;;;;3.50;1.80;;;;;;;10.81;84.53;98006.00;5040263;28;20143;-84
2022/09/28 01:49:34;;;;;;;4.45;1.50;;;;;;;10.79;84.34;97999.22;5060386;28;20131;-84
2022/09/28 01:52:17;;;;;;;8.73;1.80;;;;;;;10.86;84.10;98000.97;5052020;28;20058;-84
2022/09/28 01:54:49;;;;;;;2.67;1.55;;;;;;;10.91;83.97;97984.44;5064575;28;20139;-84
2022/09/28 01:57:27;;;;;;;9.73;1.67;;;;;;;10.83;84.62;97997.81;5062448;28;20043;-84
2022/09/28 02:00:07;;;;;;;6.97;2.00;;;;;;;10.84;84.47;97994.19;5073028;28;20036;-84
2022/09/28 02:03:09;;;;;;;5.72;1.90;;;;;;;10.72;85.53;97980.53;5087354;28;20728;-84
2022/09/28 02:05:50;;;;;;;3.50;1.80;;;;;;;10.88;84.38;97974.19;5074483;28;20106;-84
2022/09/28 02:08:24;;;;;;;7.07;2.33;;;;;;;10.91;84.47;97963.22;5075189;28;20392;-83
2022/09/28 02:11:01;;;;;;;4.03;1.70;;;;;;;10.81;84.93;97965.31;5045433;28;20493;-83
2022/09/28 02:13:40;;;;;;;5.85;1.83;;;;;;;10.83;85.22;97961.47;5059566;28;20399;-83
2022/09/28 02:16:20;;;;;;;6.50;2.25;;;;;;;10.90;84.56;97956.25;5069757;28;20083;-83
2022/09/28 02:18:48;;;;;;;2.83;1.77;;;;;;;10.94;84.52;97954.91;5055919;28;20495;-83
2022/09/28 02:21:27;;;;;;;11.55;1.75;;;;;;;10.89;84.66;97948.47;5073190;28;20046;-84
2022/09/28 02:24:02;;;;;;;9.18;1.80;;;;;;;10.90;84.57;97950.13;5067062;28;20071;-84
2022/09/28 02:26:33;;;;;;;2.42;1.60;;;;;;;10.91;84.73;97947.28;5076196;28;20078;-84
2022/09/28 02:29:00;;;;;;;3.63;1.67;;;;;;;10.91;84.78;97943.81;5043582;28;20097;-83
2022/09/28 02:31:27;;;;;;;4.78;1.40;;;;;;;10.94;84.82;97951.41;5073553;28;20044;-83
2022/09/28 02:33:56;;;;;;;5.40;1.42;;;;;;;10.90;84.44;97942.16;5070509;28;20055;-84
2022/09/28 02:36:24;;;;;;;5.65;1.27;;;;;;;10.93;83.74;97944.44;5057790;28;20047;-83
2022/09/28 02:38:52;;;;;;;4.88;1.50;;;;;;;10.91;83.84;97946.47;5046942;28;20087;-83
2022/09/28 02:41:45;;;;;;;3.60;1.50;;;;;;;10.72;83.96;97946.00;5070075;28;20655;-83
2022/09/28 02:44:57;;;;;;;3.53;1.40;;;;;;;10.73;83.66;97939.69;5073382;28;20039;-83
2022/09/28 02:48:02;;;;;;;6.10;1.75;;;;;;;10.66;84.13;97933.47;5035706;28;20106;-83
2022/09/28 02:50:45;;;;;;;5.35;1.42;;;;;;;10.71;84.57;97927.59;5057896;28;20404;-83
2022/09/28 02:53:31;;;;;;;3.60;1.52;;;;;;;10.65;85.95;97937.94;5094951;28;20077;-84
2022/09/28 02:56:11;;;;;;;12.77;1.90;;;;;;;10.73;85.58;97928.25;5072443;28;20040;-84
2022/09/28 02:59:23;;;;;;;4.20;1.67;;;;;;;10.60;85.08;97934.19;5059862;28;20048;-83
2022/09/28 03:02:09;;;;;;;2.15;1.15;;;;;;;10.71;84.67;97932.91;5055064;28;20403;-83
2022/09/28 03:04:46;;;;;;;2.60;1.40;;;;;;;10.77;84.56;97933.00;5080887;28;20040;-83
2022/09/28 03:07:27;;;;;;;5.50;1.60;;;;;;;10.79;85.37;97931.00;5056521;28;20410;-83
2022/09/28 03:10:03;;;;;;;3.75;1.25;;;;;;;10.85;85.43;97932.09;5085735;28;20047;-83
2022/09/28 03:12:30;;;;;;;3.75;1.40;;;;;;;10.88;85.23;97934.38;5084557;28;20123;-83
2022/09/28 03:15:19;;;;;;;4.85;2.17;;;;;;;10.80;86.27;97934.47;5057269;28;20399;-83
2022/09/28 03:17:46;;;;;;;15.00;6.80;;;;;;;10.89;85.70;97925.41;5075376;28;20467;-84
2022/09/28 03:20:14;;;;;;;6.50;5.68;;;;;;;10.93;85.45;97924.03;5068612;28;20411;-83
2022/09/28 03:22:40;;;;;;;10.43;4.22;;;;;;;10.93;85.74;97917.91;5071283;28;20661;-83
2022/09/28 03:25:07;;;;;;;11.40;4.18;;;;;;;10.92;86.01;97914.41;5076666;28;20051;-83
2022/09/28 03:27:37;;;;;;;4.18;2.30;;;;;;;10.93;85.96;97912.59;5062211;28;20040;-84
2022/09/28 03:30:05;;;;;;;6.75;4.30;;;;;;;10.90;86.05;97921.75;5057419;28;20108;-83
2022/09/28 03:32:36;;;;;;;5.55;3.70;;;;;;;10.94;85.88;97914.22;5055206;28;20126;-83
2022/09/28 03:35:03;;;;;;;8.05;3.97;;;;;;;10.90;86.25;97913.78;5067974;28;20043;-83
2022/09/28 03:37:30;;;;;;;5.82;3.35;;;;;;;10.91;86.43;97920.72;5069366;28;21136;-83
2022/09/28 03:39:57;;;;;;;6.30;2.80;;;;;;;10.91;85.97;97922.56;5049600;28;20100;-84
2022/09/28 03:42:23;;;;;;;6.00;2.58;;;;;;;10.91;86.21;97919.91;5073226;28;20043;-84
2022/09/28 03:44:50;;;;;;;7.80;2.28;;;;;;;10.88;86.16;97925.59;5058115;28;20047;-84
2022/09/28 03:47:18;;;;;;;5.38;3.97;;;;;;;10.91;85.77;97915.41;5073546;28;20371;-85
2022/09/28 03:49:45;;;;;;;4.32;3.80;;;;;;;10.93;85.72;97912.59;5073081;28;20057;-85
2022/09/28 03:52:12;;;;;;;6.85;4.15;;;;;;;10.91;86.13;97911.94;5056000;28;20047;-90
2022/09/28 03:54:39;;;;;;;6.55;4.00;;;;;;;10.90;86.09;97897.84;5079401;28;20379;-89
2022/09/28 03:57:06;;;;;;;3.20;2.90;;;;;;;10.91;86.35;97896.00;5065132;28;20043;-85
2022/09/28 03:59:36;;;;;;;6.68;3.47;;;;;;;10.92;86.17;97892.38;5073573;28;20399;-90
2022/09/28 04:02:04;;;;;;;8.60;4.68;;;;;;;10.96;85.93;97888.31;5067163;28;20097;-89
2022/09/28 04:04:31;;;;;;;8.70;3.55;;;;;;;10.91;86.29;97896.81;5073154;28;20040;-86
2022/09/28 04:06:58;;;;;;;5.03;2.92;;;;;;;10.93;86.27;97910.75;5063667;28;20043;-91
2022/09/28 04:09:25;;;;;;;3.35;1.77;;;;;;;10.93;85.92;97900.13;5076397;28;20387;-89
2022/09/28 04:11:53;;;;;;;4.97;2.10;;;;;;;10.99;85.73;97904.72;5056595;28;20059;-89
2022/09/28 04:14:31;;;;;;;5.82;2.70;;;;;;;11.01;85.83;97905.31;5055575;28;20047;-90
2022/09/28 04:16:57;;;;;;;6.07;2.40;;;;;;;11.05;85.70;97896.00;5069495;28;20508;-89
2022/09/28 04:19:26;;;;;;;4.57;2.10;;;;;;;11.07;85.69;97893.97;5075655;28;20116;-90
2022/09/28 04:22:13;;;;;;;4.93;2.40;;;;;;;11.07;86.32;97893.16;5093532;28;20406;-92
2022/09/28 04:24:42;;;;;;;8.65;2.40;;;;;;;11.10;85.99;97891.97;5069710;28;20066;-89
2022/09/28 04:29:54;;;;;;;5.72;2.72;;;;;;;11.12;86.11;97890.75;5076345;28;20055;-86
2022/09/28 04:32:21;;;;;;;8.50;2.70;;;;;;;11.14;86.20;97893.22;5066550;28;20402;-91
2022/09/28 04:34:50;;;;;;;6.35;3.25;;;;;;;11.14;86.51;97896.69;5055389;28;20060;-91
2022/09/28 04:37:17;;;;;;;8.98;4.32;;;;;;;11.16;86.13;97893.84;5055149;28;20427;-91
2022/09/28 04:39:44;;;;;;;12.95;5.20;;;;;;;11.17;86.34;97904.31;5056583;28;20373;-89
2022/09/28 04:42:16;;;;;;;18.10;8.38;;;;;;;11.18;86.03;97907.78;5060397;28;20441;-91
2022/09/28 04:44:43;;;;;;;8.77;4.35;;;;;;;11.19;86.14;97904.09;5065931;28;20446;-87
2022/09/28 04:47:11;;;;;;;9.68;3.85;;;;;;;11.19;86.23;97909.41;5066844;28;20449;-85
2022/09/28 04:49:56;;;;;;;11.43;3.40;;;;;;;11.20;85.96;97913.75;5071236;28;20376;-85
2022/09/28 04:52:35;;;;;;;5.30;2.92;;;;;;;11.22;85.86;97917.84;5079302;28;20071;-86
2022/09/28 04:55:04;;;;;;;7.65;3.28;;;;;;;11.21;85.98;97910.88;5088247;28;20663;-85
2022/09/28 04:57:35;;;;;;;10.98;2.90;;;;;;;11.19;86.35;97904.09;5062156;28;20449;-85
2022/09/28 05:00:03;;;;;;;9.30;3.00;;;;;;;11.22;86.27;97917.00;5101360;28;20080;-85
2022/09/28 05:02:31;;;;;;;11.10;3.28;;;;;;;11.20;86.48;97919.06;5071969;28;20452;-85
2022/09/28 05:05:19;;;;;;;4.53;2.60;;;;;;;11.19;86.37;97923.53;5080209;28;20040;-85
2022/09/28 05:08:15;;;;;;;7.13;3.30;;;;;;;11.19;86.89;97914.72;5085523;28;20063;-86
2022/09/28 05:10:42;;;;;;;7.70;3.42;;;;;;;11.21;86.38;97918.84;5071553;28;20043;-85
2022/09/28 05:13:10;;;;;;;9.32;3.22;;;;;;;11.23;86.41;97921.31;5092021;28;20093;-85
2022/09/28 05:15:38;;;;;;;7.47;3.58;;;;;;;11.24;86.42;97926.44;5060282;28;20121;-84
2022/09/28 05:18:05;;;;;;;4.72;2.78;;;;;;;11.25;85.99;97925.44;5074774;28;20043;-85
2022/09/28 05:20:41;;;;;;;5.90;3.00;;;;;;;11.27;85.83;97931.41;5103973;28;20052;-85
2022/09/28 05:23:12;;;;;;;8.30;3.00;;;;;;;11.24;85.89;97939.72;5088570;28;20066;-86
2022/09/28 05:25:41;;;;;;;12.32;3.22;;;;;;;11.26;86.07;97939.53;5072786;28;20402;-85
2022/09/28 05:28:23;;;;;;;7.88;3.33;;;;;;;11.21;85.88;97942.75;5076066;28;20040;-85
2022/09/28 05:31:09;;;;;;;5.78;2.75;;;;;;;11.21;86.31;97932.13;5068649;28;20040;-85
2022/09/28 05:33:54;;;;;;;11.55;4.55;;;;;;;11.19;86.34;97935.97;5096728;28;20031;-85
2022/09/28 05:36:25;;;;;;;5.97;2.97;;;;;;;11.20;85.99;97937.66;5071646;28;20487;-84
2022/09/28 05:38:52;;;;;;;9.73;3.75;;;;;;;11.20;85.86;97949.09;5089986;28;20043;-84
2022/09/28 05:41:19;;;;;;;7.32;3.20;;;;;;;11.22;85.13;97936.44;5093622;28;20089;-84
2022/09/28 05:43:45;;;;;;;7.75;3.03;;;;;;;11.22;85.53;97941.75;5060987;28;20073;-85
2022/09/28 05:46:13;;;;;;;10.98;3.83;;;;;;;11.21;85.76;97941.94;5090362;28;20202;-85
2022/09/28 05:48:40;;;;;;;14.85;4.10;;;;;;;11.18;85.85;97945.78;5089277;28;20043;-85
2022/09/28 05:51:08;;;;;;;8.27;3.70;;;;;;;11.20;85.77;97948.28;5077637;28;20044;-85
2022/09/28 05:53:35;;;;;;;6.60;3.40;;;;;;;11.18;86.27;97943.13;5083255;28;20118;-85
2022/09/28 05:56:03;;;;;;;6.40;3.22;;;;;;;11.17;85.89;97944.16;5075514;28;20047;-85
2022/09/28 05:58:32;;;;;;;8.73;3.85;;;;;;;11.19;85.99;97942.13;5085376;28;20402;-85
2022/09/28 06:00:59;;;;;;;8.52;3.72;;;;;;;11.18;86.29;97956.41;5061789;28;20058;-85
2022/09/28 06:03:27;;;;;;;11.68;4.13;;;;;;;11.21;86.09;97955.22;5068511;28;20479;-85
2022/09/28 06:05:54;;;;;;;10.60;3.40;;;;;;;11.18;86.20;97948.44;5066692;28;20051;-85
2022/09/28 06:08:20;;;;;;;9.10;3.35;;;;;;;11.18;86.45;97955.59;5091834;28;20048;-85
2022/09/28 06:10:59;;;;;;;7.13;3.47;;;;;;;11.17;86.45;97959.25;5071554;28;20036;-85
2022/09/28 06:13:26;;;;;;;9.55;3.53;;;;;;;11.20;86.37;97964.22;5091644;28;20387;-85
2022/09/28 06:15:53;;;;;;;11.40;3.72;;;;;;;11.20;86.57;97966.88;5087117;28;20103;-84
2022/09/28 06:18:20;;;;;;;10.88;3.30;;;;;;;11.21;86.66;97964.00;5077628;28;20044;-85
2022/09/28 06:21:13;;;;;;;4.80;3.30;;;;;;;11.21;86.47;97973.81;5086162;28;20491;-85
2022/09/28 06:23:43;;;;;;;9.00;3.50;;;;;;;11.20;87.02;97973.00;5069036;28;20495;-85
2022/09/28 06:26:16;;;;;;;7.95;3.50;;;;;;;11.21;86.79;97981.78;5072930;28;20134;-85
2022/09/28 06:28:43;;;;;;;8.05;3.75;;;;;;;11.19;87.17;97983.81;5072407;28;20482;-85
2022/09/28 06:31:10;;;;;;;8.68;3.30;;;;;;;11.22;86.94;97983.44;5058585;28;20125;-85
2022/09/28 06:33:45;;;;;;;14.93;3.58;;;;;;;11.21;87.13;97987.09;5059367;28;20105;-85
2022/09/28 06:36:12;;;;;;;20.42;4.13;;;;;;;11.21;87.31;97993.22;5080056;28;20513;-85
2022/09/28 06:38:39;;;;;;;10.32;3.92;;;;;;;11.23;87.08;97988.56;5072836;28;20071;-85
2022/09/28 06:41:06;;;;;;;13.55;3.80;;;;;;;11.25;86.97;97988.38;5089705;28;20441;-84
2022/09/28 06:43:33;;;;;;;7.97;4.00;;;;;;;11.26;87.00;97998.81;5053582;28;20062;-84
2022/09/28 06:46:19;;;;;;;13.32;4.18;;;;;;;11.29;86.76;97997.63;5102936;28;20047;-85
2022/09/28 06:48:46;;;;;;;15.45;4.57;;;;;;;11.28;86.78;97996.81;5072629;28;20369;-85
2022/09/28 06:51:17;;;;;;;7.43;4.10;;;;;;;11.29;86.78;98002.94;5070136;28;20421;-78
2022/09/28 06:53:56;;;;;;;7.70;3.35;;;;;;;11.30;86.90;98005.41;5099821;28;20040;-78
2022/09/28 06:56:48;;;;;;;15.55;4.55;;;;;;;11.32;86.68;98007.06;5087558;28;20111;-78
2022/09/28 06:59:17;;;;;;;12.27;4.53;;;;;;;11.36;86.56;98011.81;5088538;28;20445;-78
2022/09/28 07:01:44;;;;;;;13.95;4.38;;;;;;;11.38;86.54;98011.66;5076269;28;20048;-78
2022/09/28 07:04:45;;;;;;;14.07;5.85;;;;;;;11.40;86.57;98013.09;5087368;28;20077;-78
2022/09/28 07:07:31;;;;;;;9.05;4.18;;;;;;;11.44;85.96;98022.34;5090939;28;20059;-78
2022/09/28 07:10:16;;;;;;;12.52;4.50;;;;;;;11.46;85.89;98019.50;5089159;28;20043;-78
2022/09/28 07:13:01;;;;;;;12.48;4.43;;;;;;;11.48;85.73;98026.28;5077174;28;21003;-78
2022/09/28 07:15:33;;;;;;;14.55;4.85;;;;;;;11.52;86.04;98034.69;5056249;28;20457;-78
2022/09/28 07:18:01;;;;;;;9.93;4.40;;;;;;;11.54;85.91;98032.69;5077891;28;20448;-78
2022/09/28 07:20:32;;;;;;;13.25;4.35;;;;;;;11.57;86.17;98032.31;5078889;28;20496;-80
2022/09/28 07:23:10;;;;;;;9.55;3.72;;;;;;;11.60;85.95;98031.09;5060167;28;20098;-78
2022/09/28 07:26:05;;;;;;;11.60;5.10;;;;;;;11.65;85.84;98042.84;5072019;28;20124;-78
2022/09/28 07:28:55;;;;;;;11.88;4.45;;;;;;;11.68;85.88;98046.97;5084683;28;20126;-79
2022/09/28 07:31:33;;;;;;;13.18;4.47;;;;;;;11.69;85.47;98044.13;5088335;28;20044;-79
2022/09/28 07:34:21;;;;;;;13.23;5.35;;;;;;;11.67;85.37;98051.44;5087025;28;20052;-79
2022/09/28 07:37:11;;;;;;;10.73;5.15;;;;;;;11.66;85.48;98055.13;5071842;28;20070;-79
2022/09/28 07:42:25;;;;;;;10.60;4.20;;;;;;;11.67;84.89;98053.28;5052501;28;20443;-78
2022/09/28 07:44:53;;;;;;;9.57;4.22;;;;;;;11.67;85.04;98066.59;5058915;28;20035;-78
2022/09/28 07:47:25;;;;;;;11.60;4.60;;;;;;;11.70;85.30;98063.53;5074605;28;20063;-79
2022/09/28 07:50:16;;;;;;;12.63;4.40;;;;;;;11.75;85.42;98066.47;5077420;28;20055;-79
2022/09/28 07:52:59;;;;;;;15.68;4.18;;;;;;;11.74;84.81;98064.84;5098499;28;20055;-85
2022/09/28 07:56:04;;;;;;;16.85;4.65;;;;;;;11.71;84.89;98079.31;5085111;28;20066;-85
2022/09/28 07:58:53;;;;;;;10.43;4.10;;;;;;;11.74;85.18;98078.13;5084429;28;20039;-85
2022/09/28 08:01:41;;;;;;;12.05;4.05;;;;;;;11.77;84.38;98069.78;5098562;28;20067;-85
2022/09/28 08:04:10;;;;;;;12.38;5.07;;;;;;;11.82;85.39;98079.84;5065439;28;20062;-85
2022/09/28 08:06:39;;;;;;;10.98;5.28;;;;;;;11.87;84.91;98075.66;5067855;28;20046;-85
2022/09/28 08:09:08;;;;;;;8.23;4.60;;;;;;;11.90;84.27;98090.41;5065908;28;20383;-85
2022/09/28 08:11:53;;;;;;;11.68;4.53;;;;;;;11.91;84.25;98087.56;5075998;28;20040;-80
2022/09/28 08:14:55;;;;;;;12.85;4.10;;;;;;;11.92;83.77;98091.88;5033680;28;20633;-80
2022/09/28 08:17:37;;;;;;;7.18;3.80;;;;;;;12.00;83.21;98103.41;5060481;28;20517;-80
2022/09/28 08:22:52;;;;;;;10.50;3.85;;;;;;;12.07;83.41;98099.81;5091280;28;20471;-80
2022/09/28 08:25:19;;;;;;;9.50;4.30;;;;;;;12.04;82.32;98104.69;5067304;28;20050;-80
2022/09/28 08:27:46;;;;;;;12.63;4.18;;;;;;;12.02;82.88;98110.19;5060222;28;21022;-80
2022/09/28 08:30:14;;;;;;;9.45;3.83;;;;;;;12.02;82.28;98112.84;5082177;28;20387;-80
2022/09/28 08:33:14;;;;;;;10.07;3.83;;;;;;;11.97;80.92;98117.09;5021450;28;20409;-80
2022/09/28 08:35:41;;;;;;;6.93;4.05;;;;;;;11.95;80.61;98125.25;5083312;28;20075;-80
2022/09/28 08:38:21;;;;;;;13.35;3.92;;;;;;;11.82;79.25;98123.22;5080809;28;20104;-80
2022/09/28 08:41:33;;;;;;;12.05;4.00;;;;;;;11.69;76.55;98131.84;5087466;28;20100;-79
2022/09/28 08:44:23;;;;;;;5.57;3.00;;;;;;;11.62;76.89;98130.13;5088396;28;20122;-80
2022/09/28 08:50:28;;;;;;;11.68;3.42;;;;;;;11.74;78.57;98149.91;5078853;28;20036;-80
2022/09/28 08:53:30;;;;;;;9.93;2.80;;;;;;;11.79;78.76;98142.22;5076328;28;20368;-80
2022/09/28 08:56:28;;;;;;;4.80;2.63;;;;;;;11.84;78.77;98144.31;5090128;28;20092;-79
2022/09/28 08:59:03;;;;;;;4.50;2.70;;;;;;;11.89;78.15;98131.31;5079495;28;20438;-79
2022/09/28 09:01:36;;;;;;;6.40;2.63;;;;;;;11.92;77.69;98134.44;5053200;28;20048;-79
2022/09/28 09:04:06;;;;;;;10.57;2.90;;;;;;;11.85;76.62;98130.81;5075261;28;20055;-79
2022/09/28 09:07:14;;;;;;;5.10;2.80;;;;;;;11.84;76.49;98133.69;5068209;28;20060;-80
2022/09/28 09:10:20;;;;;;;12.45;3.75;;;;;;;11.74;76.33;98141.94;5079976;28;20045;-80
2022/09/28 09:13:12;;;;;;;8.65;3.28;;;;;;;11.78;75.88;98137.06;5056445;28;20028;-80
2022/09/28 09:16:06;;;;;;;8.73;3.67;;;;;;;11.87;77.27;98142.13;5045996;28;20048;-80
2022/09/28 09:19:27;;;;;;;5.07;2.85;;;;;;;11.92;78.10;98146.91;5089328;28;20040;-80
2022/09/28 09:22:14;;;;;;;7.57;2.83;;;;;;;12.08;78.27;98148.53;5085657;28;20044;-80
2022/09/28 09:24:50;;;;;;;9.57;3.28;;;;;;;12.13;76.82;98146.94;5068199;28;20376;-80
2022/09/28 09:27:45;;;;;;;8.13;3.03;;;;;;;12.23;77.71;98148.50;5081507;28;20036;-80
2022/09/28 09:30:18;;;;;;;9.82;3.05;;;;;;;12.36;78.06;98153.97;5042370;28;20147;-80
2022/09/28 09:33:40;;;;;;;8.65;3.53;;;;;;;12.31;75.50;98156.34;5061428;28;20044;-80
2022/09/28 09:36:37;;;;;;;13.00;3.00;;;;;;;12.26;75.24;98162.28;4990716;28;20421;-80
2022/09/28 09:39:37;;;;;;;10.23;3.10;;;;;;;12.23;73.40;98151.97;4997857;28;20183;-80
2022/09/28 09:42:29;;;;;;;11.65;2.97;;;;;;;12.39;75.73;98150.94;5073938;28;20047;-80
2022/09/28 09:45:22;;;;;;;7.03;3.50;;;;;;;12.42;75.57;98160.38;5052198;28;22539;-80
2022/09/28 09:48:24;;;;;;;9.27;3.50;;;;;;;12.33;74.42;98159.66;5060870;28;20040;-80
2022/09/28 09:51:01;;;;;;;7.00;3.38;;;;;;;12.40;74.67;98168.56;5068683;28;20043;-80
2022/09/28 09:53:35;;;;;;;6.70;2.70;;;;;;;12.46;74.52;98165.13;5066766;28;20047;-80
2022/09/28 09:56:21;;;;;;;8.25;2.75;;;;;;;12.34;72.84;98166.66;5064979;28;20047;-80
2022/09/28 09:59:05;;;;;;;11.70;3.13;;;;;;;12.31;72.53;98170.50;5080963;28;20040;-80
2022/09/28 10:01:38;;;;;;;8.35;3.00;;;;;;;12.30;73.21;98176.00;5056569;28;20060;-80
2022/09/28 10:04:24;;;;;;;8.50;2.58;;;;;;;12.30;73.53;98181.34;5068834;28;20042;-80
2022/09/28 10:07:01;;;;;;;11.20;3.08;;;;;;;12.27;73.53;98182.53;5041773;28;20068;-80
2022/09/28 10:09:33;;;;;;;7.88;3.00;;;;;;;12.33;73.98;98184.44;5085877;28;20047;-80
2022/09/28 10:12:19;;;;;;;5.80;2.30;;;;;;;12.36;74.19;98189.41;5074400;28;20508;-80
2022/09/28 10:14:46;;;;;;;5.90;2.80;;;;;;;12.38;73.85;98182.03;5071553;28;20074;-81
2022/09/28 10:17:17;;;;;;;4.65;2.35;;;;;;;12.40;73.16;98175.72;5068986;28;20490;-80
2022/09/28 10:20:03;;;;;;;12.60;3.03;;;;;;;12.45;73.70;98182.13;5080465;28;20048;-80
2022/09/28 10:22:46;;;;;;;8.05;3.60;;;;;;;12.52;74.04;98166.22;5061830;28;20036;-80
2022/09/28 10:25:16;;;;;;;10.23;2.72;;;;;;;12.64;74.64;98174.53;5074260;28;20038;-80
2022/09/28 10:27:45;;;;;;;21.83;5.43;;;;;;;12.74;74.90;98164.38;5092897;28;20138;-80
2022/09/28 10:30:17;;;;;;;7.32;2.47;;;;;;;12.81;74.21;98163.44;5072701;28;20047;-80
2022/09/28 10:32:46;;;;;;;6.57;2.17;;;;;;;12.90;74.13;98160.63;5071593;28;20384;-80
2022/09/28 10:35:24;;;;;;;5.47;2.38;;;;;;;12.92;72.57;98162.06;5075623;28;20040;-80
2022/09/28 10:38:12;;;;;;;6.78;1.90;;;;;;;12.98;72.67;98166.66;5064372;28;20468;-80
2022/09/28 10:40:48;;;;;;;11.15;2.80;;;;;;;12.99;72.31;98175.47;5088946;28;20117;-80
2022/09/28 10:43:28;;;;;;;8.63;1.90;;;;;;;12.99;72.46;98160.31;5057468;28;20054;-80
2022/09/28 10:46:20;;;;;;;11.23;2.58;;;;;;;12.90;71.32;98173.94;5069384;28;20040;-80
2022/09/28 10:49:02;;;;;;;6.95;2.58;;;;;;;13.04;72.43;98175.72;5069957;28;20424;-80
2022/09/28 10:51:44;;;;;;;4.82;2.15;;;;;;;12.96;71.45;98170.53;5061309;28;20115;-80
2022/09/28 10:54:17;;;;;;;6.63;2.38;;;;;;;13.02;72.08;98173.22;5071693;28;20074;-80
2022/09/28 10:56:46;;;;;;;7.53;2.15;;;;;;;13.04;71.37;98179.19;5078142;28;20051;-80
2022/09/28 10:59:30;;;;;;;12.20;2.95;;;;;;;13.01;70.45;98176.09;5072785;28;20039;-80
2022/09/28 11:02:29;;;;;;;5.35;2.30;;;;;;;13.08;70.82;98178.81;5061363;28;20702;-80
2022/09/28 11:05:21;;;;;;;11.45;2.92;;;;;;;13.11;69.92;98167.78;5069165;28;20132;-80
2022/09/28 11:07:51;;;;;;;8.52;3.08;;;;;;;13.18;70.71;98174.81;5084461;28;20502;-80
2022/09/28 11:10:25;;;;;;;8.43;2.35;;;;;;;13.12;67.74;98180.09;5051345;28;20078;-80
2022/09/28 11:12:57;;;;;;;5.10;2.13;;;;;;;13.05;67.22;98182.69;5081116;28;20044;-81
2022/09/28 11:15:30;;;;;;;5.20;2.20;;;;;;;12.92;69.09;98167.41;5064137;28;20040;-81
2022/09/28 11:18:30;;;;;;;10.88;2.45;;;;;;;12.71;67.85;98170.91;5057988;28;20040;-81
2022/09/28 11:21:13;;;;;;;7.90;2.80;;;;;;;12.77;69.17;98172.81;5092859;28;20042;-81
2022/09/28 11:24:06;;;;;;;12.98;2.55;;;;;;;12.80;69.13;98169.78;5057767;28;20132;-81
2022/09/28 11:26:41;;;;;;;8.35;2.30;;;;;;;12.81;69.40;98178.59;5074385;28;20492;-81
2022/09/28 11:29:41;;;;;;;10.27;2.30;;;;;;;12.68;69.22;98173.97;5067943;28;20114;-81
2022/09/28 11:32:22;;;;;;;6.85;2.53;;;;;;;12.80;69.22;98175.09;5078443;28;20059;-81
2022/09/28 11:35:28;;;;;;;8.02;2.20;;;;;;;12.73;68.38;98178.72;5093178;28;20104;-81
2022/09/28 11:38:01;;;;;;;8.40;2.03;;;;;;;12.78;68.98;98168.31;5096599;28;20491;-81
2022/09/28 11:41:34;;;;;;;3.85;1.70;;;;;;;12.74;68.12;98170.53;5053141;28;20068;-81
2022/09/28 11:44:10;;;;;;;5.25;1.65;;;;;;;12.88;69.15;98174.16;5096524;28;20043;-81
2022/09/28 11:47:11;;;;;;;9.13;2.30;;;;;;;12.93;67.32;98171.75;5084589;28;20109;-81
2022/09/28 11:49:44;;;;;;;13.02;2.00;;;;;;;13.09;67.63;98172.47;5091266;28;20055;-81
2022/09/28 11:52:39;;;;;;;6.35;1.90;;;;;;;13.10;67.74;98161.63;5068730;28;20051;-80
2022/09/28 11:55:21;;;;;;;4.75;2.10;;;;;;;13.24;67.91;98174.03;5017350;28;20047;-80
2022/09/28 11:58:01;;;;;;;5.18;2.15;;;;;;;13.32;63.79;98172.28;5082690;28;20044;-81
2022/09/28 12:00:30;;;;;;;3.67;1.50;;;;;;;13.24;65.91;98179.38;5071887;28;20036;-81
2022/09/28 12:03:15;;;;;;;4.60;2.40;;;;;;;13.18;64.56;98174.00;5068261;28;20048;-81
2022/09/28 12:05:51;;;;;;;9.02;1.95;;;;;;;13.23;65.77;98183.06;5084375;28;20040;-81
2022/09/28 12:08:33;;;;;;;5.85;1.65;;;;;;;13.31;66.16;98173.31;5061578;28;20043;-80
2022/09/28 12:11:15;;;;;;;5.55;2.17;;;;;;;13.36;66.45;98171.69;5073666;28;20047;-81
2022/09/28 12:14:05;;;;;;;8.38;2.15;;;;;;;13.40;66.87;98172.94;5082964;28;20044;-81
2022/09/28 12:16:40;;;;;;;4.70;2.20;;;;;;;13.34;66.57;98179.06;5086119;28;20040;-80
2022/09/28 12:19:34;;;;;;;9.73;1.95;;;;;;;13.33;67.08;98177.44;5102443;28;20122;-81
2022/09/28 12:22:11;;;;;;;4.68;2.35;;;;;;;13.30;66.56;98182.31;5086853;28;20475;-80
2022/09/28 12:24:50;;;;;;;8.15;2.13;;;;;;;13.22;66.74;98176.06;5083246;28;20042;-81
2022/09/28 12:27:23;;;;;;;4.30;2.20;;;;;;;13.24;67.23;98184.69;5078551;28;20036;-81
2022/09/28 12:30:02;;;;;;;6.85;2.40;;;;;;;13.27;67.23;98188.03;5053889;28;20509;-81
2022/09/28 12:32:34;;;;;;;6.07;2.33;;;;;;;13.36;67.23;98182.38;5081586;28;20097;-81